Time;durP1;ratioP1;P1;durP2;ratioP2;P2;SDS_P1;SDS_P2;PMS_P1;PMS_P2;Temp;Humidity;BMP_temperature;BMP_pressure;BME280_temperature;BME280_humidity;BME280_pressure;Samples;Min_cycle;Max_cycle;Signal;HPM_P1;HPM_P2
2023/03/09 00:00:44;;;;;;;65.22;38.78;;;;;;;;;;5034933;28;20044;-77
2023/03/09 00:03:48;;;;;;;60.15;39.63;;;;;;;;;;5034879;28;20040;-77
2023/03/09 00:06:52;;;;;;;59.58;39.28;;;11.40;99.90;;;;;;5034779;28;20053;-77
2023/03/09 00:09:57;;;;;;;58.40;38.50;;;13.30;99.90;;;;;;5034340;28;20426;-78
2023/03/09 00:13:01;;;;;;;58.80;38.08;;;13.10;99.90;;;;;;5034434;28;20052;-77
2023/03/09 00:16:26;;;;;;;58.08;37.90;;;13.10;99.90;;;;;;5034234;28;20053;-77
2023/03/09 00:19:30;;;;;;;60.47;35.83;;;13.10;99.90;;;;;;5034419;28;20409;-78
2023/03/09 00:22:34;;;;;;;56.28;36.88;;;;;;;;;;5034266;28;20040;-78
2023/03/09 00:25:39;;;;;;;54.45;35.88;;;;;;;;;;5033601;28;20049;-78
2023/03/09 00:28:43;;;;;;;53.20;35.03;;;;;;;;;;5034240;28;20040;-78
2023/03/09 00:31:47;;;;;;;53.13;34.60;;;;;;;;;;5034264;28;20180;-78
2023/03/09 00:34:52;;;;;;;62.33;35.30;;;;;;;;;;5033102;28;20508;-78
2023/03/09 00:37:56;;;;;;;54.78;35.75;;;;;;;;;;5034096;28;20041;-78
2023/03/09 00:41:03;;;;;;;55.38;32.92;;;13.20;99.90;;;;;;5033798;28;20053;-78
2023/03/09 00:44:08;;;;;;;50.40;32.38;;;13.10;99.90;;;;;;5034013;28;20044;-77
2023/03/09 00:47:12;;;;;;;48.83;31.60;;;15.60;99.90;;;;;;5032936;28;20044;-77
2023/03/09 00:50:16;;;;;;;49.60;29.83;;;13.10;99.90;;;;;;5033025;28;20044;-78
2023/03/09 00:53:21;;;;;;;57.28;28.40;;;;;;;;;;5033685;28;20069;-78
2023/03/09 00:56:26;;;;;;;47.63;27.70;;;13.30;99.90;;;;;;5033435;28;20501;-77
2023/03/09 00:59:31;;;;;;;44.97;29.10;;;13.20;99.90;;;;;;5032896;28;20053;-76
2023/03/09 01:02:35;;;;;;;43.17;27.95;;;;;;;;;;5033462;28;20045;-77
2023/03/09 01:05:40;;;;;;;50.67;25.92;;;;;;;;;;5032623;28;20052;-77
2023/03/09 01:08:45;;;;;;;40.28;24.35;;;13.30;99.90;;;;;;5033504;28;20515;-78
2023/03/09 01:11:50;;;;;;;39.35;25.92;;;;;;;;;;5032453;28;20037;-79
2023/03/09 01:14:54;;;;;;;43.47;25.73;;;;;;;;;;5033158;28;20088;-78
2023/03/09 01:17:58;;;;;;;37.63;23.42;;;14.50;99.90;;;;;;5033227;28;20044;-78
2023/03/09 01:21:03;;;;;;;39.10;25.27;;;13.30;99.90;;;;;;5020993;28;20045;-78
2023/03/09 01:24:07;;;;;;;43.80;24.33;;;13.20;99.90;;;;;;5032971;28;20048;-78
2023/03/09 01:27:11;;;;;;;40.83;23.10;;;;;;;;;;5032356;28;20048;-78
2023/03/09 01:30:17;;;;;;;37.50;22.75;;;;;;;;;;5032859;28;20040;-77
2023/03/09 01:33:23;;;;;;;43.63;23.27;;;;;;;;;;5032329;28;20044;-78
2023/03/09 01:36:27;;;;;;;44.25;22.50;;;11.90;99.90;;;;;;5032316;28;20057;-78
2023/03/09 01:39:30;;;;;;;33.33;20.33;;;13.00;99.90;;;;;;5032637;28;20048;-78
2023/03/09 01:42:35;;;;;;;34.95;17.52;;;;;;;;;;5032994;28;20052;-77
2023/03/09 01:45:39;;;;;;;32.55;17.35;;;13.10;99.90;;;;;;5032584;28;20056;-79
2023/03/09 01:48:43;;;;;;;37.45;19.90;;;;;;;;;;5032913;28;20040;-77
2023/03/09 01:51:47;;;;;;;41.35;20.08;;;;;;;;;;5032142;28;20044;-78
2023/03/09 01:54:59;;;;;;;31.52;15.30;;;13.20;99.90;;;;;;5032460;28;20064;-78
2023/03/09 01:58:09;;;;;;;31.10;16.60;;;10.40;99.90;;;;;;5031526;28;20048;-78
2023/03/09 02:01:14;;;;;;;25.05;14.00;;;;;;;;;;5031737;28;20052;-78
2023/03/09 02:04:26;;;;;;;30.27;15.40;;;12.50;99.90;;;;;;5031630;28;20044;-78
2023/03/09 02:07:34;;;;;;;31.50;16.80;;;14.20;99.90;;;;;;5032479;28;20493;-78
2023/03/09 02:11:08;;;;;;;30.13;15.30;;;13.30;99.90;;;;;;5031307;28;20416;-78
2023/03/09 02:14:15;;;;;;;29.85;15.25;;;13.30;99.90;;;;;;5031227;28;20068;-77
2023/03/09 02:17:19;;;;;;;27.60;15.82;;;15.30;99.90;;;;;;5032010;28;20041;-77
2023/03/09 02:20:36;;;;;;;37.05;16.10;;;13.80;99.90;;;;;;5042811;28;20104;-78
2023/03/09 02:24:11;;;;;;;25.88;16.13;;;13.20;99.90;;;;;;5031988;28;20401;-78
2023/03/09 02:27:20;;;;;;;28.50;17.38;;;13.10;99.90;;;;;;5031809;28;20049;-78
2023/03/09 02:30:28;;;;;;;34.42;16.65;;;11.70;99.90;;;;;;5031363;28;20041;-77
2023/03/09 02:33:32;;;;;;;35.35;18.42;;;;;;;;;;5030759;28;20053;-78
2023/03/09 02:36:37;;;;;;;31.15;17.13;;;9.60;99.90;;;;;;5030618;28;20068;-78
2023/03/09 02:39:49;;;;;;;34.63;18.13;;;12.80;99.90;;;;;;5030492;28;20052;-79
2023/03/09 02:42:54;;;;;;;36.17;18.95;;;;;;;;;;5030765;28;20437;-78
2023/03/09 02:46:00;;;;;;;33.38;18.10;;;12.80;99.90;;;;;;5030865;28;20078;-78
2023/03/09 02:49:04;;;;;;;33.75;18.70;;;12.70;99.90;;;;;;5053858;28;20048;-78
2023/03/09 02:52:09;;;;;;;34.83;18.95;;;;;;;;;;5030855;28;20449;-78
2023/03/09 02:55:14;;;;;;;35.50;19.80;;;;;;;;;;5030383;28;20520;-78
2023/03/09 02:58:18;;;;;;;30.48;19.23;;;12.80;99.90;;;;;;5030522;28;20044;-78
2023/03/09 03:01:22;;;;;;;27.95;17.48;;;12.90;99.90;;;;;;5031081;28;20409;-78
2023/03/09 03:04:26;;;;;;;25.77;18.48;;;;;;;;;;5031151;28;20048;-79
2023/03/09 03:07:32;;;;;;;36.67;19.75;;;12.90;99.90;;;;;;5030346;28;20413;-78
2023/03/09 03:10:36;;;;;;;30.38;19.30;;;12.70;99.90;;;;;;5030855;28;20049;-78
2023/03/09 03:13:40;;;;;;;26.75;17.40;;;;;;;;;;5041371;28;20056;-78
2023/03/09 03:16:47;;;;;;;28.23;18.25;;;12.60;99.90;;;;;;5030387;28;20064;-78
2023/03/09 03:19:52;;;;;;;29.42;19.85;;;12.60;99.90;;;;;;5030247;28;20057;-78
2023/03/09 03:22:56;;;;;;;32.28;19.30;;;12.70;99.90;;;;;;5030458;28;20646;-78
2023/03/09 03:26:09;;;;;;;32.45;19.35;;;12.50;99.90;;;;;;5018704;28;20048;-78
2023/03/09 03:29:17;;;;;;;32.85;19.05;;;12.40;99.90;;;;;;5029413;28;20052;-78
2023/03/09 03:32:21;;;;;;;31.15;19.02;;;12.30;99.90;;;;;;5029900;28;20052;-78
2023/03/09 03:35:25;;;;;;;28.55;19.08;;;;;;;;;;5029534;28;20068;-77
2023/03/09 03:38:30;;;;;;;30.48;18.92;;;;;;;;;;5030529;28;20508;-77
2023/03/09 03:41:34;;;;;;;32.47;18.20;;;12.20;99.90;;;;;;5030761;28;20056;-77
2023/03/09 03:44:43;;;;;;;32.88;17.70;;;13.90;99.90;;;;;;5030045;28;20120;-78
2023/03/09 03:47:49;;;;;;;31.05;17.98;;;12.30;99.90;;;;;;5030044;28;20036;-78
2023/03/09 03:50:53;;;;;;;28.35;18.10;;;12.30;99.90;;;;;;5030152;28;20538;-77
2023/03/09 03:53:58;;;;;;;34.78;18.42;;;12.20;99.90;;;;;;5029836;28;20060;-78
2023/03/09 03:57:03;;;;;;;26.88;17.05;;;12.00;99.90;;;;;;5030036;28;20037;-77
2023/03/09 04:00:11;;;;;;;31.83;17.05;;;12.10;99.90;;;;;;5030564;28;20048;-78
2023/03/09 04:03:15;;;;;;;30.88;16.92;;;12.50;99.90;;;;;;5031325;28;20045;-78
2023/03/09 04:06:24;;;;;;;25.60;16.38;;;;;;;;;;5041282;28;20086;-78
2023/03/09 04:09:30;;;;;;;29.60;17.88;;;12.30;99.90;;;;;;5029857;28;20052;-79
2023/03/09 04:12:35;;;;;;;29.88;15.98;;;12.20;99.90;;;;;;5030209;28;20049;-78
2023/03/09 04:15:39;;;;;;;30.05;17.02;;;12.20;99.90;;;;;;5041688;28;20422;-78
2023/03/09 04:18:44;;;;;;;29.45;16.00;;;;;;;;;;5029824;28;20040;-79
2023/03/09 04:21:49;;;;;;;27.55;15.90;;;12.30;99.90;;;;;;5029626;28;20040;-78
2023/03/09 04:24:54;;;;;;;34.20;16.73;;;12.30;99.90;;;;;;5029776;28;20041;-78
2023/03/09 04:27:58;;;;;;;31.23;16.35;;;12.30;99.90;;;;;;5029675;28;20049;-79
2023/03/09 04:31:11;;;;;;;27.75;15.65;;;12.40;99.90;;;;;;5029780;28;20052;-78
2023/03/09 04:34:17;;;;;;;25.20;14.70;;;;;;;;;;5029400;28;20076;-78
2023/03/09 04:37:21;;;;;;;22.35;13.35;;;9.80;99.90;;;;;;5029636;28;20048;-77
2023/03/09 04:40:29;;;;;;;32.72;15.98;;;;;;;;;;5031358;28;20052;-78
2023/03/09 04:43:35;;;;;;;32.60;15.25;;;12.50;99.90;;;;;;5033023;28;20048;-78
2023/03/09 04:46:39;;;;;;;28.15;14.65;;;12.50;99.90;;;;;;5033000;28;20040;-78
2023/03/09 04:49:46;;;;;;;29.73;15.02;;;;;;;;;;5032684;28;20052;-79
2023/03/09 04:52:51;;;;;;;42.95;14.52;;;12.70;99.90;;;;;;5033117;28;20500;-77
2023/03/09 04:55:56;;;;;;;23.00;14.77;;;;;;;;;;5055900;28;20099;-78
2023/03/09 04:59:00;;;;;;;27.55;13.85;;;;;;;;;;5032729;28;20065;-78
2023/03/09 05:02:06;;;;;;;25.05;14.50;;;10.80;99.90;;;;;;5032461;28;20083;-78
2023/03/09 05:05:19;;;;;;;27.95;13.50;;;;;;;;;;5032902;28;20194;-78
2023/03/09 05:08:26;;;;;;;29.42;13.73;;;;;;;;;;5032298;28;20041;-78
2023/03/09 05:11:30;;;;;;;26.50;13.77;;;;;;;;;;5032648;28;20056;-77
2023/03/09 05:14:34;;;;;;;22.25;11.98;;;;;;;;;;5032333;28;20425;-78
2023/03/09 05:17:39;;;;;;;29.58;13.10;;;;;;;;;;5032159;28;20428;-78
2023/03/09 05:20:45;;;;;;;23.60;12.35;;;;;;;;;;5020967;28;20103;-77
2023/03/09 05:23:49;;;;;;;24.17;12.10;;;;;;;;;;5032370;28;20044;-78
2023/03/09 05:26:54;;;;;;;21.48;9.43;;;;;;;;;;5032472;28;20040;-78
2023/03/09 05:30:03;;;;;;;29.38;10.63;;;14.00;99.90;;;;;;5032186;28;20048;-78
2023/03/09 05:33:10;;;;;;;21.58;9.65;;;;;;;;;;5055300;28;20516;-76
2023/03/09 05:36:19;;;;;;;25.73;9.68;;;12.90;99.90;;;;;;5031922;28;20048;-78
2023/03/09 05:39:25;;;;;;;26.90;9.88;;;;;;;;;;5031809;28;20048;-79
2023/03/09 05:42:29;;;;;;;19.77;6.90;;;;;;;;;;5032224;28;20049;-77
2023/03/09 05:45:34;;;;;;;19.67;6.22;;;;;;;;;;5031992;28;20041;-78
2023/03/09 05:48:39;;;;;;;20.75;8.25;;;12.80;99.90;;;;;;5032531;28;20056;-78
2023/03/09 05:51:44;;;;;;;21.98;9.88;;;;;;;;;;5031233;28;20036;-79
2023/03/09 05:54:48;;;;;;;26.60;13.57;;;13.10;99.90;;;;;;5031463;28;20056;-78
2023/03/09 05:57:54;;;;;;;30.30;13.80;;;13.00;99.90;;;;;;5031756;28;20401;-79
2023/03/09 06:00:58;;;;;;;27.67;15.85;;;;;;;;;;5031817;28;20068;-78
2023/03/09 06:04:04;;;;;;;30.23;15.57;;;14.30;99.90;;;;;;5031328;28;20040;-78
2023/03/09 06:07:10;;;;;;;29.92;16.05;;;;;;;;;;5031560;28;20044;-78
2023/03/09 06:10:21;;;;;;;38.63;16.77;;;;;;;;;;5031411;28;20048;-78
2023/03/09 06:13:27;;;;;;;32.38;16.77;;;12.90;99.90;;;;;;5031194;28;20040;-77
2023/03/09 06:16:32;;;;;;;38.88;17.45;;;;;;;;;;5031238;28;20573;-76
2023/03/09 06:19:37;;;;;;;43.05;17.08;;;;;;;;;;5031038;28;20040;-79
2023/03/09 06:22:44;;;;;;;32.13;16.25;;;;;;;;;;5031067;28;20048;-77
2023/03/09 06:25:49;;;;;;;28.20;16.15;;;;;;;;;;5030555;28;20041;-72
2023/03/09 06:28:56;;;;;;;35.75;15.20;;;;;;;;;;5030399;28;20052;-75
2023/03/09 06:32:01;;;;;;;51.13;17.90;;;13.00;99.90;;;;;;5031135;28;20049;-70
2023/03/09 06:35:08;;;;;;;42.85;16.73;;;13.00;99.90;;;;;;5042119;28;20512;-70
2023/03/09 06:38:12;;;;;;;33.63;15.80;;;;;;;;;;5031009;28;20056;-72
2023/03/09 06:41:29;;;;;;;33.22;17.17;;;;;;;;;;5030515;28;20515;-71
2023/03/09 06:44:34;;;;;;;32.45;16.92;;;;;;;;;;5030960;28;20044;-70
2023/03/09 06:47:39;;;;;;;32.88;16.40;;;;;;;;;;5031389;28;20048;-72
2023/03/09 06:50:48;;;;;;;35.63;18.25;;;;;;;;;;5030613;28;20049;-70
2023/03/09 06:53:52;;;;;;;38.42;16.60;;;15.60;99.90;;;;;;5029282;28;20072;-71
2023/03/09 06:57:02;;;;;;;29.13;15.32;;;;;;;;;;5029818;28;20055;-71
2023/03/09 07:00:09;;;;;;;30.58;13.65;;;14.40;99.90;;;;;;5030361;28;20049;-71
2023/03/09 07:03:18;;;;;;;26.15;14.45;;;13.20;99.90;;;;;;5029148;28;20512;-71
2023/03/09 07:06:23;;;;;;;38.15;14.80;;;;;;;;;;5041727;28;20112;-70
2023/03/09 07:09:26;;;;;;;35.95;14.65;;;13.50;99.90;;;;;;5030870;28;20188;-71
2023/03/09 07:12:31;;;;;;;26.98;14.43;;;16.10;99.90;;;;;;5030814;28;20049;-70
2023/03/09 07:15:36;;;;;;;45.92;15.52;;;13.70;99.90;;;;;;5029400;28;20052;-72
2023/03/09 07:18:40;;;;;;;33.92;14.02;;;12.80;99.90;;;;;;5030790;28;20036;-68
2023/03/09 07:21:45;;;;;;;25.33;12.30;;;11.20;99.90;;;;;;5030540;28;20056;-68
2023/03/09 07:24:49;;;;;;;29.15;12.75;;;13.70;99.90;;;;;;5030929;28;20056;-70
2023/03/09 07:27:53;;;;;;;32.97;12.93;;;;;;;;;;5030689;28;20061;-69
2023/03/09 07:30:58;;;;;;;28.33;13.00;;;;;;;;;;5030751;28;20041;-71
2023/03/09 07:34:02;;;;;;;25.65;12.90;;;13.70;99.90;;;;;;5030500;28;20044;-70
2023/03/09 07:37:06;;;;;;;31.48;14.00;;;13.80;99.90;;;;;;5030793;28;20044;-70
2023/03/09 07:40:11;;;;;;;32.30;13.93;;;13.80;99.90;;;;;;5030690;28;20045;-72
2023/03/09 07:43:15;;;;;;;24.85;11.00;;;14.60;99.90;;;;;;5030942;28;20041;-68
2023/03/09 07:46:28;;;;;;;21.02;7.70;;;14.10;99.90;;;;;;5029757;28;20045;-72
2023/03/09 07:49:32;;;;;;;20.08;9.00;;;;;;;;;;5030781;28;20370;-72
2023/03/09 07:52:37;;;;;;;25.08;8.75;;;13.90;99.90;;;;;;5029853;28;20068;-69
2023/03/09 07:55:41;;;;;;;24.30;8.25;;;14.50;99.90;;;;;;5029897;28;20060;-69
2023/03/09 07:58:46;;;;;;;24.48;9.18;;;14.50;99.90;;;;;;5030543;28;20052;-72
2023/03/09 08:01:50;;;;;;;22.40;8.82;;;14.50;99.90;;;;;;5029946;28;20064;-71
2023/03/09 08:04:53;;;;;;;38.55;9.38;;;14.60;99.90;;;;;;5030429;28;20511;-72
2023/03/09 08:07:57;;;;;;;25.58;7.85;;;14.60;99.90;;;;;;5030391;28;20056;-72
2023/03/09 08:11:03;;;;;;;20.00;8.13;;;14.70;99.90;;;;;;5030800;28;20057;-71
2023/03/09 08:14:07;;;;;;;22.05;6.72;;;14.80;99.90;;;;;;5030524;28;20048;-72
2023/03/09 08:17:10;;;;;;;44.97;9.55;;;14.90;99.90;;;;;;5034591;28;20424;-68
2023/03/09 08:20:15;;;;;;;32.42;8.55;;;14.90;99.90;;;;;;5034096;28;20052;-68
2023/03/09 08:23:19;;;;;;;33.63;5.32;;;15.00;99.90;;;;;;5034506;28;20504;-71
2023/03/09 08:26:23;;;;;;;32.25;4.68;;;15.10;99.90;;;;;;5034486;28;20060;-71
2023/03/09 08:29:28;;;;;;;28.83;4.70;;;15.30;99.90;;;;;;5034441;28;20044;-70
2023/03/09 08:32:32;;;;;;;22.75;4.88;;;15.40;99.90;;;;;;5034239;28;20504;-71
2023/03/09 08:35:36;;;;;;;32.42;5.72;;;15.80;99.90;;;;;;5033882;28;20061;-68
2023/03/09 08:38:41;;;;;;;21.42;5.72;;;15.80;99.90;;;;;;5033627;28;20040;-74
2023/03/09 08:41:45;;;;;;;24.50;6.28;;;15.90;99.90;;;;;;5034118;28;20052;-69
2023/03/09 08:44:49;;;;;;;31.45;5.35;;;16.10;99.90;;;;;;5034036;28;20049;-69
2023/03/09 08:47:53;;;;;;;29.05;6.55;;;16.30;99.90;;;;;;5033965;28;20082;-73
2023/03/09 08:51:00;;;;;;;24.00;5.05;;;16.40;99.90;;;;;;5033341;28;20045;-73
2023/03/09 08:54:04;;;;;;;17.80;4.75;;;16.40;99.90;;;;;;5033823;28;20045;-71
2023/03/09 08:57:08;;;;;;;25.08;5.40;;;16.40;99.90;;;;;;5033507;28;20041;-71
2023/03/09 09:00:12;;;;;;;27.63;5.63;;;16.40;99.90;;;;;;5033354;28;20041;-68
2023/03/09 09:03:16;;;;;;;24.20;5.55;;;16.40;99.90;;;;;;5033701;28;20056;-70
2023/03/09 09:06:20;;;;;;;25.77;4.70;;;16.50;99.90;;;;;;5033458;28;20056;-71
2023/03/09 09:09:24;;;;;;;28.48;6.10;;;16.40;99.90;;;;;;5033451;28;20196;-71
2023/03/09 09:12:32;;;;;;;25.83;4.97;;;16.40;99.90;;;;;;5033297;28;20416;-69
2023/03/09 09:15:37;;;;;;;31.50;5.57;;;16.40;99.90;;;;;;5033111;28;20085;-72
2023/03/09 09:18:42;;;;;;;30.27;6.00;;;16.40;99.90;;;;;;5033407;28;20053;-69
2023/03/09 09:21:46;;;;;;;29.83;6.30;;;16.40;99.90;;;;;;5032370;28;20049;-72
2023/03/09 09:24:50;;;;;;;21.00;6.25;;;16.50;99.90;;;;;;5032310;28;20401;-75
2023/03/09 09:27:55;;;;;;;19.70;5.50;;;16.50;99.90;;;;;;5032359;28;20112;-69
2023/03/09 09:31:03;;;;;;;31.20;5.75;;;16.50;99.90;;;;;;5033231;28;20037;-73
2023/03/09 09:34:10;;;;;;;31.13;5.70;;;16.50;99.90;;;;;;5032183;28;20389;-69
2023/03/09 09:37:16;;;;;;;27.58;5.30;;;16.60;99.90;;;;;;5032582;28;20072;-69
2023/03/09 09:40:21;;;;;;;34.05;7.18;;;16.50;99.90;;;;;;5032616;28;20056;-72
2023/03/09 09:43:26;;;;;;;32.60;6.35;;;16.50;99.90;;;;;;5032906;28;20056;-70
2023/03/09 09:46:32;;;;;;;31.52;7.65;;;16.50;99.90;;;;;;5032956;28;20040;-70
2023/03/09 09:49:49;;;;;;;28.50;7.40;;;16.50;99.90;;;;;;5032507;28;20045;-71
2023/03/09 09:53:00;;;;;;;32.40;6.85;;;16.50;99.90;;;;;;5032781;28;20052;-70
2023/03/09 09:56:10;;;;;;;34.38;6.97;;;16.40;99.90;;;;;;5032344;28;20520;-69
2023/03/09 09:59:38;;;;;;;28.83;7.57;;;16.40;99.90;;;;;;5032254;28;20045;-70
2023/03/09 10:03:03;;;;;;;28.60;7.13;;;16.40;99.90;;;;;;5030496;28;20074;-71
2023/03/09 10:06:18;;;;;;;29.33;7.47;;;16.40;99.90;;;;;;5032387;28;20050;-70
2023/03/09 10:09:30;;;;;;;32.78;7.93;;;16.40;99.90;;;;;;5032049;28;20508;-70
2023/03/09 10:12:34;;;;;;;27.27;9.50;;;16.50;99.90;;;;;;5031173;28;20374;-71
2023/03/09 10:15:38;;;;;;;31.58;6.93;;;16.50;99.90;;;;;;5031996;28;20057;-71
2023/03/09 10:18:47;;;;;;;29.45;6.65;;;16.50;99.90;;;;;;5032197;28;20043;-71
2023/03/09 10:22:22;;;;;;;24.98;6.43;;;16.60;99.90;;;;;;5032174;28;20053;-70
2023/03/09 10:25:31;;;;;;;30.45;7.18;;;16.70;99.90;;;;;;5036574;28;20496;-70
2023/03/09 10:28:41;;;;;;;29.67;6.45;;;16.70;99.90;;;;;;5031988;28;20167;-71
2023/03/09 10:31:58;;;;;;;25.60;6.95;;;16.80;99.90;;;;;;5019949;28;20048;-71
2023/03/09 10:35:24;;;;;;;22.67;6.43;;;16.90;99.90;;;;;;5031841;28;20520;-69
2023/03/09 10:38:29;;;;;;;21.83;6.47;;;16.90;99.90;;;;;;5031431;28;20037;-71
2023/03/09 10:41:35;;;;;;;35.83;7.70;;;17.00;99.90;;;;;;5032344;28;20060;-71
2023/03/09 10:44:45;;;;;;;29.65;7.13;;;17.00;99.90;;;;;;5031748;28;20056;-71
2023/03/09 10:47:59;;;;;;;26.20;6.45;;;17.00;99.90;;;;;;5031522;28;20144;-70
2023/03/09 10:51:05;;;;;;;42.28;7.65;;;17.00;99.90;;;;;;5031536;28;20052;-70
2023/03/09 10:54:37;;;;;;;21.48;5.45;;;17.00;99.90;;;;;;5031492;28;20048;-71
2023/03/09 10:57:58;;;;;;;22.38;5.18;;;17.00;99.90;;;;;;5031737;28;20060;-71
2023/03/09 11:01:03;;;;;;;23.25;5.03;;;17.10;99.90;;;;;;5031532;28;20029;-71
2023/03/09 11:04:25;;;;;;;24.60;5.45;;;17.10;99.90;;;;;;5031368;28;20044;-71
2023/03/09 11:07:31;;;;;;;22.88;4.85;;;17.10;99.90;;;;;;5031370;28;20101;-71
2023/03/09 11:10:35;;;;;;;24.88;5.43;;;17.10;99.90;;;;;;5031236;28;20052;-71
2023/03/09 11:13:45;;;;;;;15.70;4.28;;;17.10;99.90;;;;;;5031098;28;20048;-71
2023/03/09 11:16:52;;;;;;;28.40;6.05;;;17.10;99.90;;;;;;5031014;28;20052;-73
2023/03/09 11:20:23;;;;;;;27.40;6.20;;;17.10;99.90;;;;;;5030776;28;20507;-71
2023/03/09 11:23:37;;;;;;;13.80;4.43;;;17.10;99.90;;;;;;5030854;28;20040;-71
2023/03/09 11:26:54;;;;;;;26.33;7.57;;;17.10;99.90;;;;;;5031120;28;20048;-71
2023/03/09 11:30:22;;;;;;;25.75;5.75;;;17.10;99.90;;;;;;5030690;28;20049;-72
2023/03/09 11:33:29;;;;;;;24.13;4.10;;;17.10;99.90;;;;;;5030499;28;20052;-71
2023/03/09 11:36:46;;;;;;;25.77;5.68;;;17.10;99.90;;;;;;5030428;28;20052;-71
2023/03/09 11:39:56;;;;;;;28.77;5.07;;;17.10;99.90;;;;;;5030596;28;20052;-73
2023/03/09 11:43:20;;;;;;;14.88;3.92;;;17.20;99.90;;;;;;5030871;28;20048;-73
2023/03/09 11:46:25;;;;;;;22.23;4.55;;;17.20;99.90;;;;;;5030331;28;20049;-72
2023/03/09 11:49:30;;;;;;;29.25;4.97;;;17.20;99.90;;;;;;5030097;28;20113;-71
2023/03/09 11:52:46;;;;;;;29.05;5.68;;;17.20;99.90;;;;;;5030405;28;20044;-71
2023/03/09 11:55:54;;;;;;;24.55;5.40;;;17.10;99.90;;;;;;5030558;28;20056;-73
2023/03/09 11:59:14;;;;;;;31.30;5.85;;;17.10;99.90;;;;;;5030376;28;20048;-70
2023/03/09 12:02:37;;;;;;;29.23;6.40;;;17.10;99.90;;;;;;5030607;28;20052;-69
2023/03/09 12:06:06;;;;;;;33.97;6.13;;;17.10;99.90;;;;;;5030617;28;20044;-70
2023/03/09 12:09:36;;;;;;;33.35;5.97;;;17.00;99.90;;;;;;5030011;28;20060;-73
2023/03/09 12:13:10;;;;;;;33.08;6.30;;;17.00;99.90;;;;;;5028552;28;20048;-72
2023/03/09 12:16:21;;;;;;;24.42;5.68;;;17.00;99.90;;;;;;5029846;28;20059;-70
2023/03/09 12:19:29;;;;;;;27.13;5.13;;;17.00;99.90;;;;;;5030988;28;20389;-73
2023/03/09 12:22:44;;;;;;;32.88;6.20;;;17.00;99.90;;;;;;5030579;28;20065;-72
2023/03/09 12:25:58;;;;;;;26.98;5.53;;;17.00;99.90;;;;;;5030651;28;20048;-69
2023/03/09 12:29:18;;;;;;;26.80;5.88;;;16.90;99.90;;;;;;5030365;28;20056;-71
2023/03/09 12:32:24;;;;;;;33.30;6.85;;;16.90;99.90;;;;;;5030467;28;20060;-71
2023/03/09 12:35:41;;;;;;;30.80;6.00;;;16.90;99.90;;;;;;5030462;28;20044;-71
2023/03/09 12:38:45;;;;;;;24.13;5.20;;;16.90;99.90;;;;;;5030432;28;20048;-70
2023/03/09 12:42:08;;;;;;;33.13;6.13;;;16.90;99.90;;;;;;5030262;28;20053;-72
2023/03/09 12:45:12;;;;;;;33.97;6.25;;;16.90;99.90;;;;;;5030374;28;20389;-71
2023/03/09 12:48:26;;;;;;;33.22;7.57;;;16.90;99.90;;;;;;5030803;28;20052;-72
2023/03/09 12:51:36;;;;;;;31.42;6.53;;;16.90;99.90;;;;;;5030323;28;20040;-72
2023/03/09 12:54:42;;;;;;;26.67;6.22;;;16.90;99.90;;;;;;5029936;28;20052;-72
2023/03/09 12:57:48;;;;;;;31.02;6.35;;;16.90;99.90;;;;;;5030302;28;20036;-70
2023/03/09 13:01:03;;;;;;;32.05;5.90;;;17.00;99.90;;;;;;5030138;28;20519;-71
2023/03/09 13:04:12;;;;;;;26.25;6.40;;;16.90;99.90;;;;;;5033799;28;20033;-70
2023/03/09 13:07:18;;;;;;;32.30;7.13;;;16.90;99.90;;;;;;5033954;28;20056;-71
2023/03/09 13:10:33;;;;;;;31.17;6.68;;;17.00;99.90;;;;;;5034106;28;20397;-71
2023/03/09 13:13:44;;;;;;;34.80;7.25;;;16.90;99.90;;;;;;5034016;28;20048;-69
2023/03/09 13:16:50;;;;;;;25.43;5.87;;;16.90;99.90;;;;;;5034010;28;20052;-71
2023/03/09 13:19:56;;;;;;;30.52;7.53;;;16.90;99.90;;;;;;5032988;28;20067;-72
2023/03/09 13:23:08;;;;;;;27.33;6.05;;;17.00;99.90;;;;;;5033315;28;20044;-72
2023/03/09 13:26:13;;;;;;;;;;;17.00;99.90;;;;;;5033111;28;20048;-72
2023/03/09 13:29:21;;;;;;;27.35;5.93;;;17.10;99.90;;;;;;5033095;28;19909;-72
2023/03/09 13:32:33;;;;;;;25.67;5.20;;;17.00;99.90;;;;;;5033070;28;20045;-73
2023/03/09 13:36:06;;;;;;;24.95;5.97;;;17.00;99.90;;;;;;5033092;28;20053;-73
2023/03/09 13:39:20;;;;;;;21.85;5.82;;;17.00;99.90;;;;;;5032972;28;20072;-73
2023/03/09 13:42:24;;;;;;;25.15;5.10;;;17.00;99.90;;;;;;5032530;28;20488;-73
2023/03/09 13:45:33;;;;;;;25.17;5.80;;;17.00;99.90;;;;;;5033192;28;20044;-71
2023/03/09 13:48:44;;;;;;;22.63;5.18;;;17.00;99.90;;;;;;5032818;28;20041;-73
2023/03/09 13:51:52;;;;;;;;;;;17.00;99.90;;;;;;5033282;28;20045;-73
2023/03/09 13:54:58;;;;;;;19.63;4.28;;;17.00;99.90;;;;;;5032216;28;19913;-72
2023/03/09 13:58:22;;;;;;;21.20;5.05;;;17.00;99.90;;;;;;5032618;28;20068;-74
2023/03/09 14:01:27;;;;;;;18.77;4.95;;;17.00;99.90;;;;;;5033048;28;20062;-71
2023/03/09 14:04:32;;;;;;;21.45;4.97;;;17.00;99.90;;;;;;5033112;28;20045;-73
2023/03/09 14:07:43;;;;;;;21.05;5.18;;;17.00;99.90;;;;;;5037548;28;20124;-72
2023/03/09 14:10:47;;;;;;;19.63;5.70;;;17.10;99.90;;;;;;5038839;28;20043;-72
2023/03/09 14:14:04;;;;;;;19.00;5.80;;;17.10;99.90;;;;;;5038613;28;20044;-71
2023/03/09 14:17:17;;;;;;;18.38;5.45;;;17.10;99.90;;;;;;5039453;28;20504;-72
2023/03/09 14:20:36;;;;;;;17.83;4.90;;;17.20;99.90;;;;;;5038272;28;20492;-72
2023/03/09 14:23:42;;;;;;;18.48;4.55;;;17.20;99.90;;;;;;5039803;28;20048;-73
2023/03/09 14:26:46;;;;;;;16.85;4.47;;;17.20;99.90;;;;;;5040026;28;20060;-72
2023/03/09 14:29:53;;;;;;;15.93;5.10;;;17.30;99.90;;;;;;5040822;28;20068;-71
2023/03/09 14:33:06;;;;;;;16.05;4.45;;;17.30;99.90;;;;;;5039607;28;20040;-72
2023/03/09 14:36:18;;;;;;;19.08;5.47;;;17.30;99.90;;;;;;5039042;28;20519;-72
2023/03/09 14:39:29;;;;;;;20.27;6.25;;;17.30;99.90;;;;;;5034368;28;20048;-72
2023/03/09 14:42:34;;;;;;;12.52;4.32;;;17.30;99.90;;;;;;5031961;28;20049;-72
2023/03/09 14:45:38;;;;;;;17.40;5.57;;;17.30;99.90;;;;;;5032050;28;20048;-72
2023/03/09 14:48:45;;;;;;;17.60;4.65;;;17.40;99.90;;;;;;5031628;28;20053;-73
2023/03/09 14:51:49;;;;;;;19.95;4.95;;;17.40;99.90;;;;;;5030882;28;20049;-72
2023/03/09 14:54:53;;;;;;;22.38;5.25;;;17.40;99.90;;;;;;5031423;28;20052;-73
2023/03/09 14:57:57;;;;;;;14.80;4.75;;;17.40;99.90;;;;;;5031365;28;20056;-72
2023/03/09 15:01:01;;;;;;;15.43;5.15;;;17.40;99.90;;;;;;5031230;28;20588;-73
2023/03/09 15:04:11;;;;;;;18.42;7.57;;;17.30;99.90;;;;;;5031287;28;20049;-71
2023/03/09 15:07:17;;;;;;;18.98;5.95;;;17.30;99.90;;;;;;5031328;28;20048;-72
2023/03/09 15:10:22;;;;;;;14.23;4.75;;;17.30;99.90;;;;;;5031270;28;20052;-72
2023/03/09 15:13:26;;;;;;;16.38;5.75;;;17.30;99.90;;;;;;5030978;28;20049;-71
2023/03/09 15:16:30;;;;;;;12.98;4.30;;;17.30;99.90;;;;;;5030991;28;20060;-72
2023/03/09 15:19:34;;;;;;;13.52;4.30;;;17.30;99.90;;;;;;5030354;28;20508;-72
2023/03/09 15:22:38;;;;;;;21.60;5.00;;;17.30;99.90;;;;;;5030742;28;20048;-72
2023/03/09 15:25:43;;;;;;;22.98;5.05;;;17.30;99.90;;;;;;5030178;28;20048;-72
2023/03/09 15:28:47;;;;;;;16.40;4.65;;;17.20;99.90;;;;;;5030590;28;20041;-71
2023/03/09 15:31:52;;;;;;;25.30;6.05;;;17.20;99.90;;;;;;5030861;28;20056;-72
2023/03/09 15:34:56;;;;;;;26.33;6.07;;;17.20;99.90;;;;;;5030807;28;20499;-72
2023/03/09 15:38:00;;;;;;;22.30;6.07;;;17.20;99.90;;;;;;5030602;28;20052;-70
2023/03/09 15:41:06;;;;;;;19.65;5.78;;;17.10;99.90;;;;;;5030575;28;20052;-71
2023/03/09 15:44:11;;;;;;;24.13;7.03;;;17.10;99.90;;;;;;5030546;28;20041;-71
2023/03/09 15:47:16;;;;;;;23.42;5.57;;;17.10;99.90;;;;;;5030682;28;20108;-72
2023/03/09 15:50:20;;;;;;;24.00;5.57;;;17.10;99.90;;;;;;5029643;28;20041;-72
2023/03/09 15:53:25;;;;;;;22.38;5.78;;;17.00;99.90;;;;;;5030514;28;20060;-72
2023/03/09 15:56:29;;;;;;;24.33;7.03;;;17.00;99.90;;;;;;5030253;28;20072;-72
2023/03/09 15:59:33;;;;;;;26.35;6.05;;;16.90;99.90;;;;;;5030330;28;20052;-71
2023/03/09 16:02:37;;;;;;;24.58;6.15;;;16.90;99.90;;;;;;5030300;28;20492;-72
2023/03/09 16:05:41;;;;;;;22.52;6.25;;;16.90;99.90;;;;;;5030518;28;20044;-72
2023/03/09 16:08:46;;;;;;;27.00;6.38;;;16.80;99.90;;;;;;5030408;28;20512;-73
2023/03/09 16:11:50;;;;;;;27.30;6.97;;;16.70;99.90;;;;;;5030404;28;20048;-72
2023/03/09 16:14:55;;;;;;;31.75;7.10;;;16.70;99.90;;;;;;5030131;28;20052;-72
2023/03/09 16:17:59;;;;;;;25.23;7.15;;;16.70;99.90;;;;;;5030079;28;20504;-72
2023/03/09 16:21:04;;;;;;;31.98;8.65;;;16.70;99.90;;;;;;5030261;28;20500;-73
2023/03/09 16:24:08;;;;;;;24.70;7.43;;;16.60;99.90;;;;;;5029897;28;20044;-72